sensor_id;sensor_type;location;lat;lon;timestamp;P1;durP1;ratioP1;P2;durP2;ratioP2
20417;SDS011;10368;51.436;6.774;2022-12-16T00:01:31;60.80;;;28.10;;
20417;SDS011;10368;51.436;6.774;2022-12-16T00:03:59;54.00;;;25.80;;
20417;SDS011;10368;51.436;6.774;2022-12-16T00:06:29;56.13;;;28.17;;
20417;SDS011;10368;51.436;6.774;2022-12-16T00:09:00;56.60;;;26.20;;
20417;SDS011;10368;51.436;6.774;2022-12-16T00:11:27;59.97;;;26.63;;
20417;SDS011;10368;51.436;6.774;2022-12-16T00:13:57;60.17;;;27.73;;
20417;SDS011;10368;51.436;6.774;2022-12-16T00:16:24;62.90;;;27.90;;
20417;SDS011;10368;51.436;6.774;2022-12-16T00:18:51;59.33;;;27.87;;
20417;SDS011;10368;51.436;6.774;2022-12-16T00:21:18;61.67;;;27.83;;
20417;SDS011;10368;51.436;6.774;2022-12-16T00:23:54;64.50;;;28.63;;
20417;SDS011;10368;51.436;6.774;2022-12-16T00:26:22;63.73;;;28.07;;
20417;SDS011;10368;51.436;6.774;2022-12-16T00:28:49;55.77;;;27.90;;
20417;SDS011;10368;51.436;6.774;2022-12-16T00:31:16;57.03;;;29.07;;
20417;SDS011;10368;51.436;6.774;2022-12-16T00:33:44;52.90;;;26.80;;
20417;SDS011;10368;51.436;6.774;2022-12-16T00:36:11;55.97;;;26.87;;
20417;SDS011;10368;51.436;6.774;2022-12-16T00:38:38;56.83;;;27.20;;
20417;SDS011;10368;51.436;6.774;2022-12-16T00:41:05;56.83;;;26.77;;
20417;SDS011;10368;51.436;6.774;2022-12-16T00:43:33;67.67;;;30.63;;
20417;SDS011;10368;51.436;6.774;2022-12-16T00:46:00;61.20;;;28.00;;
20417;SDS011;10368;51.436;6.774;2022-12-16T00:48:27;63.57;;;27.70;;
20417;SDS011;10368;51.436;6.774;2022-12-16T00:50:54;56.23;;;27.27;;
20417;SDS011;10368;51.436;6.774;2022-12-16T00:53:22;60.07;;;26.97;;
20417;SDS011;10368;51.436;6.774;2022-12-16T00:55:51;59.40;;;27.23;;
20417;SDS011;10368;51.436;6.774;2022-12-16T00:58:26;60.30;;;27.40;;
20417;SDS011;10368;51.436;6.774;2022-12-16T01:00:53;61.90;;;27.10;;
20417;SDS011;10368;51.436;6.774;2022-12-16T01:03:20;56.57;;;26.90;;
20417;SDS011;10368;51.436;6.774;2022-12-16T01:05:47;55.03;;;25.70;;
20417;SDS011;10368;51.436;6.774;2022-12-16T01:08:14;59.27;;;26.13;;
20417;SDS011;10368;51.436;6.774;2022-12-16T01:10:41;60.87;;;26.90;;
20417;SDS011;10368;51.436;6.774;2022-12-16T01:13:15;57.80;;;27.00;;
20417;SDS011;10368;51.436;6.774;2022-12-16T01:15:42;54.63;;;27.03;;
20417;SDS011;10368;51.436;6.774;2022-12-16T01:18:09;53.57;;;26.23;;
20417;SDS011;10368;51.436;6.774;2022-12-16T01:20:36;54.77;;;26.83;;
20417;SDS011;10368;51.436;6.774;2022-12-16T01:23:03;56.73;;;26.10;;
20417;SDS011;10368;51.436;6.774;2022-12-16T01:25:30;54.43;;;25.47;;
20417;SDS011;10368;51.436;6.774;2022-12-16T01:27:57;54.57;;;26.37;;
20417;SDS011;10368;51.436;6.774;2022-12-16T01:30:24;51.00;;;26.23;;
20417;SDS011;10368;51.436;6.774;2022-12-16T01:32:51;59.73;;;28.67;;
20417;SDS011;10368;51.436;6.774;2022-12-16T01:35:18;57.20;;;25.87;;
20417;SDS011;10368;51.436;6.774;2022-12-16T01:38:06;56.33;;;26.90;;
20417;SDS011;10368;51.436;6.774;2022-12-16T01:40:33;57.83;;;27.83;;
20417;SDS011;10368;51.436;6.774;2022-12-16T01:43:00;58.40;;;26.53;;
20417;SDS011;10368;51.436;6.774;2022-12-16T01:45:31;63.53;;;27.60;;
20417;SDS011;10368;51.436;6.774;2022-12-16T01:48:01;57.77;;;26.57;;
20417;SDS011;10368;51.436;6.774;2022-12-16T01:50:41;57.13;;;26.30;;
20417;SDS011;10368;51.436;6.774;2022-12-16T01:53:08;63.13;;;27.70;;
20417;SDS011;10368;51.436;6.774;2022-12-16T01:55:40;56.17;;;26.97;;
20417;SDS011;10368;51.436;6.774;2022-12-16T01:58:12;62.67;;;25.70;;
20417;SDS011;10368;51.436;6.774;2022-12-16T02:00:46;57.07;;;26.97;;
20417;SDS011;10368;51.436;6.774;2022-12-16T02:03:13;49.63;;;26.60;;
20417;SDS011;10368;51.436;6.774;2022-12-16T02:05:41;46.37;;;24.67;;
20417;SDS011;10368;51.436;6.774;2022-12-16T02:31:00;60.17;;;25.50;;
20417;SDS011;10368;51.436;6.774;2022-12-16T02:33:55;56.07;;;27.37;;
20417;SDS011;10368;51.436;6.774;2022-12-16T02:39:13;51.00;;;26.17;;
20417;SDS011;10368;51.436;6.774;2022-12-16T02:47:09;69.73;;;30.13;;
20417;SDS011;10368;51.436;6.774;2022-12-16T02:52:11;60.80;;;27.27;;
20417;SDS011;10368;51.436;6.774;2022-12-16T02:54:39;59.20;;;26.50;;
20417;SDS011;10368;51.436;6.774;2022-12-16T02:59:58;64.63;;;27.70;;
20417;SDS011;10368;51.436;6.774;2022-12-16T03:02:46;61.40;;;27.07;;
20417;SDS011;10368;51.436;6.774;2022-12-16T03:05:33;61.33;;;28.07;;
20417;SDS011;10368;51.436;6.774;2022-12-16T03:08:03;59.07;;;26.83;;
20417;SDS011;10368;51.436;6.774;2022-12-16T03:10:38;61.67;;;27.73;;
20417;SDS011;10368;51.436;6.774;2022-12-16T03:13:09;56.50;;;26.83;;
20417;SDS011;10368;51.436;6.774;2022-12-16T03:15:39;63.80;;;29.20;;
20417;SDS011;10368;51.436;6.774;2022-12-16T03:18:09;64.10;;;28.10;;
20417;SDS011;10368;51.436;6.774;2022-12-16T03:20:42;62.07;;;29.63;;
20417;SDS011;10368;51.436;6.774;2022-12-16T03:23:14;55.03;;;28.13;;
20417;SDS011;10368;51.436;6.774;2022-12-16T03:25:46;75.07;;;29.20;;
20417;SDS011;10368;51.436;6.774;2022-12-16T03:31:04;61.37;;;27.70;;
20417;SDS011;10368;51.436;6.774;2022-12-16T03:33:47;67.10;;;27.73;;
20417;SDS011;10368;51.436;6.774;2022-12-16T03:36:23;63.43;;;28.40;;
20417;SDS011;10368;51.436;6.774;2022-12-16T03:38:52;65.23;;;29.90;;
20417;SDS011;10368;51.436;6.774;2022-12-16T03:41:20;61.73;;;28.23;;
20417;SDS011;10368;51.436;6.774;2022-12-16T03:43:49;61.70;;;28.63;;
20417;SDS011;10368;51.436;6.774;2022-12-16T03:46:17;61.10;;;27.43;;
20417;SDS011;10368;51.436;6.774;2022-12-16T03:48:46;64.20;;;27.67;;
20417;SDS011;10368;51.436;6.774;2022-12-16T03:51:19;66.40;;;28.27;;
20417;SDS011;10368;51.436;6.774;2022-12-16T03:53:46;64.07;;;31.07;;
20417;SDS011;10368;51.436;6.774;2022-12-16T03:56:13;60.77;;;27.97;;
20417;SDS011;10368;51.436;6.774;2022-12-16T03:58:41;65.77;;;28.03;;
20417;SDS011;10368;51.436;6.774;2022-12-16T04:01:08;62.27;;;29.83;;
20417;SDS011;10368;51.436;6.774;2022-12-16T04:03:36;62.77;;;29.17;;
20417;SDS011;10368;51.436;6.774;2022-12-16T04:06:03;61.27;;;27.40;;
20417;SDS011;10368;51.436;6.774;2022-12-16T04:08:30;64.10;;;29.03;;
20417;SDS011;10368;51.436;6.774;2022-12-16T04:10:57;67.17;;;29.37;;
20417;SDS011;10368;51.436;6.774;2022-12-16T04:13:43;63.07;;;28.10;;
20417;SDS011;10368;51.436;6.774;2022-12-16T04:16:28;67.47;;;29.93;;
20417;SDS011;10368;51.436;6.774;2022-12-16T04:19:22;63.33;;;29.10;;
20417;SDS011;10368;51.436;6.774;2022-12-16T04:22:11;65.60;;;28.57;;
20417;SDS011;10368;51.436;6.774;2022-12-16T04:25:00;62.40;;;29.23;;
20417;SDS011;10368;51.436;6.774;2022-12-16T04:27:33;70.17;;;29.83;;
20417;SDS011;10368;51.436;6.774;2022-12-16T04:30:00;66.37;;;30.13;;
20417;SDS011;10368;51.436;6.774;2022-12-16T04:36:05;60.73;;;26.83;;
20417;SDS011;10368;51.436;6.774;2022-12-16T04:38:51;75.37;;;32.77;;
20417;SDS011;10368;51.436;6.774;2022-12-16T04:41:36;60.20;;;29.03;;
20417;SDS011;10368;51.436;6.774;2022-12-16T04:44:22;69.83;;;31.07;;
20417;SDS011;10368;51.436;6.774;2022-12-16T04:47:07;76.13;;;32.00;;
20417;SDS011;10368;51.436;6.774;2022-12-16T04:49:52;62.53;;;30.77;;
20417;SDS011;10368;51.436;6.774;2022-12-16T04:52:39;67.77;;;30.20;;
20417;SDS011;10368;51.436;6.774;2022-12-16T04:55:25;72.13;;;31.60;;
20417;SDS011;10368;51.436;6.774;2022-12-16T04:58:12;79.43;;;34.83;;
20417;SDS011;10368;51.436;6.774;2022-12-16T05:01:05;72.53;;;32.00;;
20417;SDS011;10368;51.436;6.774;2022-12-16T05:03:50;81.53;;;34.43;;
20417;SDS011;10368;51.436;6.774;2022-12-16T05:06:36;70.80;;;30.97;;
20417;SDS011;10368;51.436;6.774;2022-12-16T05:09:21;78.43;;;35.17;;
20417;SDS011;10368;51.436;6.774;2022-12-16T05:12:06;73.73;;;34.50;;
20417;SDS011;10368;51.436;6.774;2022-12-16T05:14:52;75.73;;;34.33;;
20417;SDS011;10368;51.436;6.774;2022-12-16T05:17:39;71.80;;;32.47;;
20417;SDS011;10368;51.436;6.774;2022-12-16T05:20:25;75.80;;;33.57;;
20417;SDS011;10368;51.436;6.774;2022-12-16T05:23:11;68.33;;;31.67;;
20417;SDS011;10368;51.436;6.774;2022-12-16T05:25:57;63.80;;;31.63;;
20417;SDS011;10368;51.436;6.774;2022-12-16T05:28:42;70.73;;;32.40;;
20417;SDS011;10368;51.436;6.774;2022-12-16T05:31:42;71.87;;;31.53;;
20417;SDS011;10368;51.436;6.774;2022-12-16T05:34:28;61.37;;;31.27;;
20417;SDS011;10368;51.436;6.774;2022-12-16T05:37:14;69.70;;;31.40;;
20417;SDS011;10368;51.436;6.774;2022-12-16T05:39:59;67.77;;;31.40;;
20417;SDS011;10368;51.436;6.774;2022-12-16T05:42:49;68.93;;;31.37;;
20417;SDS011;10368;51.436;6.774;2022-12-16T05:45:41;71.33;;;31.10;;
20417;SDS011;10368;51.436;6.774;2022-12-16T05:48:27;64.43;;;29.37;;
20417;SDS011;10368;51.436;6.774;2022-12-16T05:51:13;74.27;;;32.40;;
20417;SDS011;10368;51.436;6.774;2022-12-16T05:53:58;73.40;;;30.33;;
20417;SDS011;10368;51.436;6.774;2022-12-16T05:56:44;60.10;;;29.27;;
20417;SDS011;10368;51.436;6.774;2022-12-16T05:59:29;65.80;;;30.07;;
20417;SDS011;10368;51.436;6.774;2022-12-16T06:02:15;62.00;;;28.60;;
20417;SDS011;10368;51.436;6.774;2022-12-16T06:05:01;65.53;;;29.37;;
20417;SDS011;10368;51.436;6.774;2022-12-16T06:07:51;68.43;;;31.97;;
20417;SDS011;10368;51.436;6.774;2022-12-16T06:10:44;64.57;;;29.63;;
20417;SDS011;10368;51.436;6.774;2022-12-16T06:13:30;62.40;;;28.47;;
20417;SDS011;10368;51.436;6.774;2022-12-16T06:16:18;72.53;;;30.93;;
20417;SDS011;10368;51.436;6.774;2022-12-16T06:19:07;65.33;;;31.20;;
20417;SDS011;10368;51.436;6.774;2022-12-16T06:21:52;60.97;;;28.70;;
20417;SDS011;10368;51.436;6.774;2022-12-16T06:24:38;83.73;;;34.57;;
20417;SDS011;10368;51.436;6.774;2022-12-16T06:27:23;67.93;;;29.90;;
20417;SDS011;10368;51.436;6.774;2022-12-16T06:30:09;58.07;;;27.17;;
20417;SDS011;10368;51.436;6.774;2022-12-16T06:32:54;66.90;;;29.97;;
20417;SDS011;10368;51.436;6.774;2022-12-16T06:35:39;59.63;;;28.83;;
20417;SDS011;10368;51.436;6.774;2022-12-16T06:38:25;65.00;;;28.90;;
20417;SDS011;10368;51.436;6.774;2022-12-16T06:41:11;57.90;;;26.20;;
20417;SDS011;10368;51.436;6.774;2022-12-16T06:43:56;88.07;;;33.73;;
20417;SDS011;10368;51.436;6.774;2022-12-16T06:46:41;63.47;;;28.83;;
20417;SDS011;10368;51.436;6.774;2022-12-16T06:49:27;65.57;;;31.67;;
20417;SDS011;10368;51.436;6.774;2022-12-16T06:52:12;67.47;;;29.37;;
20417;SDS011;10368;51.436;6.774;2022-12-16T06:54:58;66.83;;;29.97;;
20417;SDS011;10368;51.436;6.774;2022-12-16T06:57:59;71.63;;;29.70;;
20417;SDS011;10368;51.436;6.774;2022-12-16T07:00:45;51.30;;;25.63;;
20417;SDS011;10368;51.436;6.774;2022-12-16T07:03:31;61.50;;;30.00;;
20417;SDS011;10368;51.436;6.774;2022-12-16T07:06:17;67.20;;;30.33;;
20417;SDS011;10368;51.436;6.774;2022-12-16T07:12:01;62.97;;;28.97;;
20417;SDS011;10368;51.436;6.774;2022-12-16T07:14:46;54.23;;;28.17;;
20417;SDS011;10368;51.436;6.774;2022-12-16T07:17:32;68.87;;;29.67;;
20417;SDS011;10368;51.436;6.774;2022-12-16T07:20:17;60.40;;;31.37;;
20417;SDS011;10368;51.436;6.774;2022-12-16T07:23:03;58.73;;;28.73;;
20417;SDS011;10368;51.436;6.774;2022-12-16T07:25:48;65.80;;;28.83;;
20417;SDS011;10368;51.436;6.774;2022-12-16T07:28:34;55.10;;;27.17;;
20417;SDS011;10368;51.436;6.774;2022-12-16T07:31:20;60.70;;;29.03;;
20417;SDS011;10368;51.436;6.774;2022-12-16T07:34:06;56.67;;;27.60;;
20417;SDS011;10368;51.436;6.774;2022-12-16T07:36:52;68.72;;;33.90;;
20417;SDS011;10368;51.436;6.774;2022-12-16T07:39:37;59.20;;;29.80;;
20417;SDS011;10368;51.436;6.774;2022-12-16T07:42:22;67.93;;;30.17;;
20417;SDS011;10368;51.436;6.774;2022-12-16T07:45:08;63.47;;;29.73;;
20417;SDS011;10368;51.436;6.774;2022-12-16T07:47:54;57.67;;;29.20;;
20417;SDS011;10368;51.436;6.774;2022-12-16T07:50:40;64.83;;;29.60;;
20417;SDS011;10368;51.436;6.774;2022-12-16T07:53:25;101.60;;;41.17;;
20417;SDS011;10368;51.436;6.774;2022-12-16T07:56:10;64.13;;;29.80;;
20417;SDS011;10368;51.436;6.774;2022-12-16T07:58:56;61.43;;;29.13;;
20417;SDS011;10368;51.436;6.774;2022-12-16T08:01:41;68.73;;;29.87;;
20417;SDS011;10368;51.436;6.774;2022-12-16T08:04:27;61.97;;;27.70;;
20417;SDS011;10368;51.436;6.774;2022-12-16T08:07:12;61.23;;;28.33;;
20417;SDS011;10368;51.436;6.774;2022-12-16T08:09:58;65.73;;;28.57;;
20417;SDS011;10368;51.436;6.774;2022-12-16T08:12:43;59.33;;;29.67;;
20417;SDS011;10368;51.436;6.774;2022-12-16T08:15:28;61.67;;;29.40;;
20417;SDS011;10368;51.436;6.774;2022-12-16T08:18:14;62.20;;;31.80;;
20417;SDS011;10368;51.436;6.774;2022-12-16T08:20:59;58.97;;;28.00;;
20417;SDS011;10368;51.436;6.774;2022-12-16T08:23:45;63.47;;;29.00;;
20417;SDS011;10368;51.436;6.774;2022-12-16T08:26:30;69.10;;;29.90;;
20417;SDS011;10368;51.436;6.774;2022-12-16T08:29:16;61.27;;;28.83;;
20417;SDS011;10368;51.436;6.774;2022-12-16T08:32:10;67.47;;;28.63;;
20417;SDS011;10368;51.436;6.774;2022-12-16T08:34:55;62.33;;;29.73;;
20417;SDS011;10368;51.436;6.774;2022-12-16T08:37:41;61.73;;;29.10;;
20417;SDS011;10368;51.436;6.774;2022-12-16T08:40:26;68.87;;;28.27;;
20417;SDS011;10368;51.436;6.774;2022-12-16T08:43:11;79.73;;;30.87;;
20417;SDS011;10368;51.436;6.774;2022-12-16T08:45:57;93.17;;;33.40;;
20417;SDS011;10368;51.436;6.774;2022-12-16T08:48:43;83.17;;;33.83;;
20417;SDS011;10368;51.436;6.774;2022-12-16T08:51:29;89.87;;;32.17;;
20417;SDS011;10368;51.436;6.774;2022-12-16T08:54:16;91.13;;;33.00;;
20417;SDS011;10368;51.436;6.774;2022-12-16T08:57:02;81.13;;;32.63;;
20417;SDS011;10368;51.436;6.774;2022-12-16T08:59:48;87.27;;;34.30;;
20417;SDS011;10368;51.436;6.774;2022-12-16T09:02:34;93.70;;;34.80;;
20417;SDS011;10368;51.436;6.774;2022-12-16T09:05:20;90.80;;;35.40;;
20417;SDS011;10368;51.436;6.774;2022-12-16T09:08:06;74.77;;;31.03;;
20417;SDS011;10368;51.436;6.774;2022-12-16T09:10:52;92.17;;;33.00;;
20417;SDS011;10368;51.436;6.774;2022-12-16T09:13:37;83.50;;;34.13;;
20417;SDS011;10368;51.436;6.774;2022-12-16T09:16:23;82.63;;;33.70;;
20417;SDS011;10368;51.436;6.774;2022-12-16T09:19:09;84.90;;;33.40;;
20417;SDS011;10368;51.436;6.774;2022-12-16T09:21:54;79.63;;;32.13;;
20417;SDS011;10368;51.436;6.774;2022-12-16T09:24:40;78.90;;;33.03;;
20417;SDS011;10368;51.436;6.774;2022-12-16T09:27:25;105.43;;;36.87;;
20417;SDS011;10368;51.436;6.774;2022-12-16T09:30:11;90.23;;;36.67;;
20417;SDS011;10368;51.436;6.774;2022-12-16T09:32:57;116.57;;;38.53;;
20417;SDS011;10368;51.436;6.774;2022-12-16T09:35:53;110.70;;;39.73;;
20417;SDS011;10368;51.436;6.774;2022-12-16T09:38:39;117.00;;;42.90;;
20417;SDS011;10368;51.436;6.774;2022-12-16T09:41:27;124.33;;;38.87;;
20417;SDS011;10368;51.436;6.774;2022-12-16T09:47:37;102.77;;;36.83;;
20417;SDS011;10368;51.436;6.774;2022-12-16T09:50:30;127.23;;;41.17;;
20417;SDS011;10368;51.436;6.774;2022-12-16T09:53:19;104.27;;;38.07;;
20417;SDS011;10368;51.436;6.774;2022-12-16T09:56:20;107.37;;;40.20;;
20417;SDS011;10368;51.436;6.774;2022-12-16T09:59:12;95.10;;;37.93;;
20417;SDS011;10368;51.436;6.774;2022-12-16T10:02:00;93.97;;;37.30;;
20417;SDS011;10368;51.436;6.774;2022-12-16T10:04:49;91.20;;;37.40;;
20417;SDS011;10368;51.436;6.774;2022-12-16T10:07:37;97.43;;;36.67;;
20417;SDS011;10368;51.436;6.774;2022-12-16T10:14:00;84.07;;;37.03;;
20417;SDS011;10368;51.436;6.774;2022-12-16T10:19:42;82.03;;;36.07;;
20417;SDS011;10368;51.436;6.774;2022-12-16T10:29:34;103.13;;;37.00;;
20417;SDS011;10368;51.436;6.774;2022-12-16T10:32:31;108.03;;;39.37;;
20417;SDS011;10368;51.436;6.774;2022-12-16T10:35:22;131.43;;;40.87;;
20417;SDS011;10368;51.436;6.774;2022-12-16T10:38:27;114.77;;;40.70;;
20417;SDS011;10368;51.436;6.774;2022-12-16T10:47:24;107.60;;;40.53;;
20417;SDS011;10368;51.436;6.774;2022-12-16T10:50:13;112.83;;;42.10;;
20417;SDS011;10368;51.436;6.774;2022-12-16T10:53:00;99.00;;;38.87;;
20417;SDS011;10368;51.436;6.774;2022-12-16T10:59:12;91.63;;;39.40;;
20417;SDS011;10368;51.436;6.774;2022-12-16T11:02:02;95.57;;;38.20;;
20417;SDS011;10368;51.436;6.774;2022-12-16T11:05:33;109.53;;;42.17;;
20417;SDS011;10368;51.436;6.774;2022-12-16T11:14:23;95.77;;;38.93;;
20417;SDS011;10368;51.436;6.774;2022-12-16T11:17:30;89.00;;;38.67;;
20417;SDS011;10368;51.436;6.774;2022-12-16T11:20:17;93.80;;;38.80;;
20417;SDS011;10368;51.436;6.774;2022-12-16T11:26:02;99.23;;;39.17;;
20417;SDS011;10368;51.436;6.774;2022-12-16T11:29:14;101.53;;;40.83;;
20417;SDS011;10368;51.436;6.774;2022-12-16T11:32:18;95.80;;;39.03;;
20417;SDS011;10368;51.436;6.774;2022-12-16T11:35:08;107.87;;;42.23;;
20417;SDS011;10368;51.436;6.774;2022-12-16T11:37:57;127.27;;;45.90;;
20417;SDS011;10368;51.436;6.774;2022-12-16T11:40:44;124.30;;;44.30;;
20417;SDS011;10368;51.436;6.774;2022-12-16T11:43:31;108.53;;;42.10;;
20417;SDS011;10368;51.436;6.774;2022-12-16T11:46:28;105.50;;;43.13;;
20417;SDS011;10368;51.436;6.774;2022-12-16T11:52:20;98.70;;;41.67;;
20417;SDS011;10368;51.436;6.774;2022-12-16T11:58:47;101.50;;;41.90;;
20417;SDS011;10368;51.436;6.774;2022-12-16T12:04:48;105.27;;;42.47;;
20417;SDS011;10368;51.436;6.774;2022-12-16T12:07:41;110.13;;;43.23;;
20417;SDS011;10368;51.436;6.774;2022-12-16T12:13:40;112.63;;;45.83;;
20417;SDS011;10368;51.436;6.774;2022-12-16T12:19:52;113.83;;;44.47;;
20417;SDS011;10368;51.436;6.774;2022-12-16T12:22:46;109.13;;;42.07;;
20417;SDS011;10368;51.436;6.774;2022-12-16T12:25:44;114.07;;;46.50;;
20417;SDS011;10368;51.436;6.774;2022-12-16T12:29:04;118.40;;;43.43;;
20417;SDS011;10368;51.436;6.774;2022-12-16T12:32:27;109.70;;;44.90;;
20417;SDS011;10368;51.436;6.774;2022-12-16T12:38:39;107.47;;;44.40;;
20417;SDS011;10368;51.436;6.774;2022-12-16T12:41:27;120.20;;;46.13;;
20417;SDS011;10368;51.436;6.774;2022-12-16T12:47:15;124.40;;;46.70;;
20417;SDS011;10368;51.436;6.774;2022-12-16T12:50:04;113.97;;;45.00;;
20417;SDS011;10368;51.436;6.774;2022-12-16T12:53:17;136.30;;;47.87;;
20417;SDS011;10368;51.436;6.774;2022-12-16T12:59:26;136.50;;;49.03;;
20417;SDS011;10368;51.436;6.774;2022-12-16T13:02:26;136.47;;;48.67;;
20417;SDS011;10368;51.436;6.774;2022-12-16T13:05:16;134.63;;;50.67;;
20417;SDS011;10368;51.436;6.774;2022-12-16T13:11:22;146.27;;;50.70;;
20417;SDS011;10368;51.436;6.774;2022-12-16T13:17:17;131.03;;;50.07;;
20417;SDS011;10368;51.436;6.774;2022-12-16T13:23:29;135.67;;;49.27;;
20417;SDS011;10368;51.436;6.774;2022-12-16T13:26:17;152.50;;;51.93;;
20417;SDS011;10368;51.436;6.774;2022-12-16T13:32:02;160.90;;;53.37;;
20417;SDS011;10368;51.436;6.774;2022-12-16T13:37:58;142.60;;;51.07;;
20417;SDS011;10368;51.436;6.774;2022-12-16T13:40:47;154.30;;;54.80;;
20417;SDS011;10368;51.436;6.774;2022-12-16T13:50:33;161.60;;;54.10;;
20417;SDS011;10368;51.436;6.774;2022-12-16T13:53:17;156.23;;;52.27;;
20417;SDS011;10368;51.436;6.774;2022-12-16T13:56:04;162.23;;;55.73;;
20417;SDS011;10368;51.436;6.774;2022-12-16T13:58:52;148.10;;;54.83;;
20417;SDS011;10368;51.436;6.774;2022-12-16T14:04:35;152.27;;;53.00;;
20417;SDS011;10368;51.436;6.774;2022-12-16T14:07:24;168.03;;;55.30;;
20417;SDS011;10368;51.436;6.774;2022-12-16T14:25:14;215.27;;;60.67;;
20417;SDS011;10368;51.436;6.774;2022-12-16T14:31:16;238.43;;;63.80;;
20417;SDS011;10368;51.436;6.774;2022-12-16T14:40:26;256.47;;;68.80;;
20417;SDS011;10368;51.436;6.774;2022-12-16T14:43:17;216.33;;;65.17;;
20417;SDS011;10368;51.436;6.774;2022-12-16T14:46:27;216.60;;;64.23;;
20417;SDS011;10368;51.436;6.774;2022-12-16T14:49:17;222.10;;;62.80;;
20417;SDS011;10368;51.436;6.774;2022-12-16T14:58:11;186.93;;;61.40;;
20417;SDS011;10368;51.436;6.774;2022-12-16T15:01:01;214.53;;;61.03;;
20417;SDS011;10368;51.436;6.774;2022-12-16T15:03:54;210.53;;;60.90;;
20417;SDS011;10368;51.436;6.774;2022-12-16T15:06:43;222.33;;;60.57;;
20417;SDS011;10368;51.436;6.774;2022-12-16T15:09:44;222.67;;;65.00;;
20417;SDS011;10368;51.436;6.774;2022-12-16T15:15:50;216.40;;;60.77;;
20417;SDS011;10368;51.436;6.774;2022-12-16T15:18:40;213.80;;;61.97;;
20417;SDS011;10368;51.436;6.774;2022-12-16T15:21:33;246.87;;;62.30;;
20417;SDS011;10368;51.436;6.774;2022-12-16T15:24:22;227.50;;;64.37;;
20417;SDS011;10368;51.436;6.774;2022-12-16T15:33:22;187.23;;;55.90;;
20417;SDS011;10368;51.436;6.774;2022-12-16T15:39:14;162.90;;;49.07;;
20417;SDS011;10368;51.436;6.774;2022-12-16T15:42:17;150.27;;;45.87;;
20417;SDS011;10368;51.436;6.774;2022-12-16T15:45:14;171.67;;;45.47;;
20417;SDS011;10368;51.436;6.774;2022-12-16T15:48:20;163.27;;;46.23;;
20417;SDS011;10368;51.436;6.774;2022-12-16T15:51:20;163.70;;;46.27;;
20417;SDS011;10368;51.436;6.774;2022-12-16T15:54:23;160.20;;;46.90;;
20417;SDS011;10368;51.436;6.774;2022-12-16T15:57:26;191.77;;;53.60;;
20417;SDS011;10368;51.436;6.774;2022-12-16T16:09:15;191.20;;;54.67;;
20417;SDS011;10368;51.436;6.774;2022-12-16T16:12:11;170.47;;;51.43;;
20417;SDS011;10368;51.436;6.774;2022-12-16T16:14:59;184.30;;;50.83;;
20417;SDS011;10368;51.436;6.774;2022-12-16T16:17:46;182.40;;;50.03;;
20417;SDS011;10368;51.436;6.774;2022-12-16T16:20:34;187.87;;;51.93;;
20417;SDS011;10368;51.436;6.774;2022-12-16T16:23:19;179.73;;;52.20;;
20417;SDS011;10368;51.436;6.774;2022-12-16T16:26:05;170.63;;;51.30;;
20417;SDS011;10368;51.436;6.774;2022-12-16T16:28:50;172.67;;;49.53;;
20417;SDS011;10368;51.436;6.774;2022-12-16T16:31:36;165.37;;;51.23;;
20417;SDS011;10368;51.436;6.774;2022-12-16T16:34:29;184.60;;;51.97;;
20417;SDS011;10368;51.436;6.774;2022-12-16T16:37:25;193.57;;;51.23;;
20417;SDS011;10368;51.436;6.774;2022-12-16T16:40:32;199.13;;;54.70;;
20417;SDS011;10368;51.436;6.774;2022-12-16T16:43:19;178.00;;;49.87;;
20417;SDS011;10368;51.436;6.774;2022-12-16T16:49:18;176.87;;;52.70;;
20417;SDS011;10368;51.436;6.774;2022-12-16T16:52:09;189.47;;;57.17;;
20417;SDS011;10368;51.436;6.774;2022-12-16T16:54:58;199.17;;;53.13;;
20417;SDS011;10368;51.436;6.774;2022-12-16T16:57:44;209.53;;;55.53;;
20417;SDS011;10368;51.436;6.774;2022-12-16T17:00:30;183.07;;;53.97;;
20417;SDS011;10368;51.436;6.774;2022-12-16T17:03:18;184.27;;;52.60;;
20417;SDS011;10368;51.436;6.774;2022-12-16T17:06:05;198.87;;;54.07;;
20417;SDS011;10368;51.436;6.774;2022-12-16T17:08:51;190.47;;;52.67;;
20417;SDS011;10368;51.436;6.774;2022-12-16T17:11:37;187.63;;;50.93;;
20417;SDS011;10368;51.436;6.774;2022-12-16T17:14:24;181.17;;;50.83;;
20417;SDS011;10368;51.436;6.774;2022-12-16T17:17:10;208.00;;;54.37;;
20417;SDS011;10368;51.436;6.774;2022-12-16T17:19:56;198.63;;;54.63;;
20417;SDS011;10368;51.436;6.774;2022-12-16T17:22:41;240.87;;;59.27;;
20417;SDS011;10368;51.436;6.774;2022-12-16T17:25:27;240.97;;;61.40;;
20417;SDS011;10368;51.436;6.774;2022-12-16T17:28:13;222.47;;;56.27;;
20417;SDS011;10368;51.436;6.774;2022-12-16T17:30:58;236.07;;;57.90;;
20417;SDS011;10368;51.436;6.774;2022-12-16T17:33:43;244.23;;;62.57;;
20417;SDS011;10368;51.436;6.774;2022-12-16T17:36:29;219.03;;;63.77;;
20417;SDS011;10368;51.436;6.774;2022-12-16T17:39:14;228.43;;;56.43;;
20417;SDS011;10368;51.436;6.774;2022-12-16T17:42:00;221.53;;;58.43;;
20417;SDS011;10368;51.436;6.774;2022-12-16T17:44:46;221.90;;;55.80;;
20417;SDS011;10368;51.436;6.774;2022-12-16T17:47:48;214.40;;;56.53;;
20417;SDS011;10368;51.436;6.774;2022-12-16T17:50:51;225.67;;;55.37;;
20417;SDS011;10368;51.436;6.774;2022-12-16T17:53:42;216.33;;;54.97;;
20417;SDS011;10368;51.436;6.774;2022-12-16T17:56:50;190.83;;;54.17;;
20417;SDS011;10368;51.436;6.774;2022-12-16T17:59:52;181.33;;;53.30;;
20417;SDS011;10368;51.436;6.774;2022-12-16T18:02:58;203.70;;;56.37;;
20417;SDS011;10368;51.436;6.774;2022-12-16T18:06:10;227.93;;;55.30;;
20417;SDS011;10368;51.436;6.774;2022-12-16T18:09:27;216.20;;;58.40;;
20417;SDS011;10368;51.436;6.774;2022-12-16T18:12:25;216.77;;;54.47;;
20417;SDS011;10368;51.436;6.774;2022-12-16T18:15:14;216.03;;;53.37;;
20417;SDS011;10368;51.436;6.774;2022-12-16T18:18:08;203.80;;;52.67;;
20417;SDS011;10368;51.436;6.774;2022-12-16T18:21:18;215.87;;;54.40;;
20417;SDS011;10368;51.436;6.774;2022-12-16T18:24:07;211.97;;;57.03;;
20417;SDS011;10368;51.436;6.774;2022-12-16T18:26:53;196.37;;;53.97;;
20417;SDS011;10368;51.436;6.774;2022-12-16T18:29:38;197.63;;;53.47;;
20417;SDS011;10368;51.436;6.774;2022-12-16T18:32:23;195.57;;;55.50;;
20417;SDS011;10368;51.436;6.774;2022-12-16T18:35:09;206.93;;;55.60;;
20417;SDS011;10368;51.436;6.774;2022-12-16T18:37:54;190.50;;;55.37;;
20417;SDS011;10368;51.436;6.774;2022-12-16T18:40:42;203.03;;;53.80;;
20417;SDS011;10368;51.436;6.774;2022-12-16T18:43:28;189.90;;;53.13;;
20417;SDS011;10368;51.436;6.774;2022-12-16T18:46:13;221.50;;;56.70;;
20417;SDS011;10368;51.436;6.774;2022-12-16T18:48:59;199.60;;;50.47;;
20417;SDS011;10368;51.436;6.774;2022-12-16T18:51:44;192.13;;;49.17;;
20417;SDS011;10368;51.436;6.774;2022-12-16T18:54:30;189.93;;;51.50;;
20417;SDS011;10368;51.436;6.774;2022-12-16T18:57:15;171.43;;;48.87;;
20417;SDS011;10368;51.436;6.774;2022-12-16T19:00:05;205.53;;;50.43;;
20417;SDS011;10368;51.436;6.774;2022-12-16T19:02:51;186.33;;;49.97;;
20417;SDS011;10368;51.436;6.774;2022-12-16T19:05:37;198.70;;;51.67;;